Time;durP1;ratioP1;P1;durP2;ratioP2;P2;SDS_P1;SDS_P2;PMS_P1;PMS_P2;Temp;Humidity;BMP_temperature;BMP_pressure;BME280_temperature;BME280_humidity;BME280_pressure;Samples;Min_cycle;Max_cycle;Signal;HPM_P1;HPM_P2
2024/01/23 00:01:26;;;;;;;5.78;1.25;;;;;;;17.31;100.00;101144.22;5007366;28;20054;-45
2024/01/23 00:03:53;;;;;;;6.40;1.25;;;;;;;17.35;100.00;101150.50;5007373;28;20501;-45
2024/01/23 00:06:20;;;;;;;5.85;1.25;;;;;;;17.36;100.00;101168.94;5010269;28;20100;-44
2024/01/23 00:08:48;;;;;;;6.68;1.80;;;;;;;17.38;100.00;101166.47;5009459;28;20041;-44
2024/01/23 00:11:14;;;;;;;9.95;1.83;;;;;;;17.33;100.00;101158.63;5008320;28;20054;-48
2024/01/23 00:13:41;;;;;;;7.22;1.38;;;;;;;17.36;100.00;101159.72;5009273;28;20115;-44
2024/01/23 00:16:08;;;;;;;7.15;1.45;;;;;;;17.35;100.00;101170.16;5011180;28;20063;-47
2024/01/23 00:18:34;;;;;;;5.40;1.27;;;;;;;17.36;100.00;101168.16;5013753;28;20137;-46
2024/01/23 00:21:01;;;;;;;8.23;1.60;;;;;;;17.29;100.00;101162.78;5012877;28;20050;-43
2024/01/23 00:23:28;;;;;;;7.70;1.50;;;;;;;17.32;100.00;101182.31;5016288;28;20064;-47
2024/01/23 00:25:55;;;;;;;6.65;1.33;;;;;;;17.34;100.00;101177.03;5014022;28;20097;-45
2024/01/23 00:28:23;;;;;;;10.63;1.27;;;;;;;17.35;100.00;101189.03;5013600;28;20042;-46
2024/01/23 00:30:49;;;;;;;5.13;1.48;;;;;;;17.33;100.00;101192.34;5013024;28;20052;-49
2024/01/23 00:33:16;;;;;;;7.18;1.60;;;;;;;17.30;100.00;101193.25;5012385;28;20049;-46
2024/01/23 00:35:42;;;;;;;5.05;1.50;;;;;;;17.31;100.00;101189.19;5009479;28;20048;-46
2024/01/23 00:38:09;;;;;;;7.82;2.10;;;;;;;17.33;100.00;101206.41;5008673;28;20526;-50
2024/01/23 00:40:35;;;;;;;5.18;1.35;;;;;;;17.33;100.00;101214.81;5019425;28;20690;-46
2024/01/23 00:43:02;;;;;;;5.03;1.27;;;;;;;17.30;100.00;101226.97;5012834;28;20038;-44
2024/01/23 00:45:28;;;;;;;1.00;0.73;;;;;;;17.30;100.00;101243.81;5013318;28;20125;-46
2024/01/23 00:47:55;;;;;;;6.70;1.48;;;;;;;17.28;100.00;101243.47;5005604;28;20121;-45
2024/01/23 00:50:22;;;;;;;3.65;1.00;;;;;;;17.26;100.00;101248.75;5010466;28;20050;-46
2024/01/23 00:52:48;;;;;;;4.03;1.23;;;;;;;17.28;100.00;101263.16;5013850;28;20046;-48
2024/01/23 00:55:15;;;;;;;7.35;1.58;;;;;;;17.28;100.00;101256.72;5010745;28;20046;-46
2024/01/23 00:57:41;;;;;;;13.20;1.55;;;;;;;17.29;100.00;101241.47;5018765;28;20416;-47
2024/01/23 01:00:09;;;;;;;3.45;1.20;;;;;;;17.27;100.00;101255.97;5013364;28;20108;-44
2024/01/23 01:02:36;;;;;;;5.68;1.20;;;;;;;17.28;100.00;101263.16;5009588;28;20608;-46
2024/01/23 01:05:03;;;;;;;9.60;1.63;;;;;;;17.26;100.00;101257.19;5009044;28;20092;-47
2024/01/23 01:07:30;;;;;;;5.35;1.23;;;;;;;17.23;100.00;101257.31;5012820;28;20050;-49
2024/01/23 01:09:57;;;;;;;9.00;1.38;;;;;;;17.24;100.00;101265.28;5013293;28;20049;-50
2024/01/23 01:12:23;;;;;;;2.95;1.00;;;;;;;17.25;100.00;101277.34;5011851;28;20141;-48
2024/01/23 01:14:50;;;;;;;6.07;1.40;;;;;;;17.26;100.00;101290.91;5013484;28;20045;-46
2024/01/23 01:17:16;;;;;;;7.75;1.40;;;;;;;17.26;100.00;101299.34;5011031;28;20049;-46
2024/01/23 01:19:43;;;;;;;4.18;1.10;;;;;;;17.24;100.00;101315.88;5006497;28;20046;-46
2024/01/23 01:22:09;;;;;;;9.45;1.30;;;;;;;17.24;100.00;101306.66;5009481;28;20524;-44
2024/01/23 01:24:36;;;;;;;5.82;1.05;;;;;;;17.25;100.00;101309.00;5011543;28;20074;-45
2024/01/23 01:27:03;;;;;;;4.38;0.90;;;;;;;17.25;100.00;101314.63;5011181;28;20042;-47
2024/01/23 01:29:29;;;;;;;6.35;1.33;;;;;;;17.24;100.00;101301.03;5004771;28;20086;-49
2024/01/23 01:31:56;;;;;;;5.65;1.23;;;;;;;17.24;100.00;101321.50;5004194;28;20132;-46
2024/01/23 01:34:22;;;;;;;6.15;1.25;;;;;;;17.23;100.00;101333.97;5006856;28;20136;-47
2024/01/23 01:36:49;;;;;;;6.68;1.58;;;;;;;17.25;100.00;101325.88;5011483;28;20107;-46
2024/01/23 01:39:15;;;;;;;3.85;1.38;;;;;;;17.23;100.00;101333.19;5012528;28;20592;-46
2024/01/23 01:41:42;;;;;;;5.80;1.40;;;;;;;17.22;100.00;101343.63;5012352;28;20052;-48
2024/01/23 01:44:09;;;;;;;5.88;1.38;;;;;;;17.22;100.00;101348.47;5008736;28;20500;-44
2024/01/23 01:46:36;;;;;;;3.10;0.90;;;;;;;17.21;100.00;101353.28;5008050;28;20046;-45
2024/01/23 01:49:03;;;;;;;6.47;1.35;;;;;;;17.22;100.00;101363.28;5008927;28;20129;-45
2024/01/23 01:51:30;;;;;;;6.35;1.10;;;;;;;17.26;100.00;101352.72;5011725;28;20042;-44
2024/01/23 01:53:58;;;;;;;3.70;1.20;;;;;;;17.26;100.00;101344.28;5008285;28;20129;-46
2024/01/23 01:56:27;;;;;;;3.95;1.00;;;;;;;17.25;100.00;101351.16;5007922;28;20054;-46
2024/01/23 01:58:57;;;;;;;6.30;1.02;;;;;;;17.25;100.00;101351.16;5004812;28;20468;-46
2024/01/23 02:01:25;;;;;;;3.88;1.10;;;;;;;17.25;100.00;101358.81;5007958;28;20047;-45
2024/01/23 02:03:52;;;;;;;2.50;1.05;;;;;;;17.25;100.00;101368.03;5007549;28;20046;-46
2024/01/23 02:06:19;;;;;;;4.80;1.10;;;;;;;17.26;100.00;101377.25;5011338;28;20057;-44
2024/01/23 02:08:48;;;;;;;5.40;1.20;;;;;;;17.27;100.00;101376.81;5009995;28;20049;-45
2024/01/23 02:11:15;;;;;;;5.28;1.02;;;;;;;17.29;100.00;101381.97;5005185;28;20132;-45
2024/01/23 02:13:42;;;;;;;4.85;1.27;;;;;;;17.23;100.00;101383.75;5003254;28;20081;-44
2024/01/23 02:16:10;;;;;;;5.78;1.25;;;;;;;17.20;100.00;101376.22;5006051;28;20435;-45
2024/01/23 02:18:36;;;;;;;3.05;0.88;;;;;;;17.22;100.00;101382.19;5004770;28;20038;-47
2024/01/23 02:21:04;;;;;;;4.10;1.50;;;;;;;17.23;100.00;101398.59;5004891;28;20054;-44
2024/01/23 02:23:31;;;;;;;3.58;0.82;;;;;;;17.21;100.00;101409.50;5008377;28;20057;-45
2024/01/23 02:25:57;;;;;;;5.65;1.02;;;;;;;17.28;100.00;101397.25;5007188;28;20046;-45
2024/01/23 02:28:24;;;;;;;3.08;1.10;;;;;;;17.29;100.00;101410.84;5003339;28;20088;-46
2024/01/23 02:30:50;;;;;;;2.92;0.98;;;;;;;17.29;100.00;101419.28;5004687;28;20175;-46
2024/01/23 02:33:17;;;;;;;5.93;1.08;;;;;;;17.28;100.00;101406.47;5004620;28;20069;-45
2024/01/23 02:35:44;;;;;;;8.43;1.63;;;;;;;17.25;100.00;101429.84;5005613;28;20140;-47
2024/01/23 02:38:10;;;;;;;5.82;1.13;;;;;;;17.29;100.00;101421.31;5008892;28;20073;-47
2024/01/23 02:40:37;;;;;;;3.30;1.00;;;;;;;17.29;100.00;101436.13;5010560;28;20077;-45
2024/01/23 02:43:03;;;;;;;3.58;1.10;;;;;;;17.22;100.00;101430.72;5005946;28;20120;-46
2024/01/23 02:45:30;;;;;;;3.03;0.90;;;;;;;17.20;100.00;101430.41;5006261;28;20046;-45
2024/01/23 02:47:56;;;;;;;3.28;0.93;;;;;;;17.28;100.00;101442.19;5001813;28;20070;-44
2024/01/23 02:50:23;;;;;;;6.18;1.45;;;;;;;17.21;100.00;101442.41;5008688;28;20047;-46
2024/01/23 02:52:50;;;;;;;2.97;0.90;;;;;;;17.22;100.00;101453.22;5005875;28;20081;-46
2024/01/23 02:55:16;;;;;;;5.55;1.50;;;;;;;17.24;100.00;101447.94;5012051;28;20124;-45
2024/01/23 02:57:43;;;;;;;2.28;1.00;;;;;;;17.25;100.00;101448.75;5011386;28;20129;-45
2024/01/23 03:00:10;;;;;;;4.00;1.20;;;;;;;17.22;100.00;101452.44;5007192;28;20180;-45
2024/01/23 03:02:36;;;;;;;4.10;1.08;;;;;;;17.22;100.00;101467.25;4999296;28;20133;-48
2024/01/23 03:05:03;;;;;;;5.13;1.27;;;;;;;17.21;100.00;101465.69;5004224;28;20045;-45
2024/01/23 03:07:30;;;;;;;5.10;1.23;;;;;;;17.24;100.00;101492.09;5003195;28;20042;-47
2024/01/23 03:09:56;;;;;;;2.75;0.95;;;;;;;17.20;100.00;101489.41;5003888;28;20053;-46
2024/01/23 03:12:23;;;;;;;4.28;0.90;;;;;;;17.20;100.00;101489.41;5007645;28;20569;-46
2024/01/23 03:14:50;;;;;;;2.25;1.02;;;;;;;17.27;100.00;101494.84;5009540;28;20046;-50
2024/01/23 03:17:18;;;;;;;1.92;0.90;;;;;;;17.29;100.00;101497.97;5009425;28;20133;-45
2024/01/23 03:19:45;;;;;;;2.92;1.00;;;;;;;17.29;100.00;101500.00;5013866;28;20128;-44
2024/01/23 03:22:12;;;;;;;3.58;1.05;;;;;;;17.24;100.00;101503.34;5007779;28;20432;-45
2024/01/23 03:24:39;;;;;;;2.88;0.85;;;;;;;17.24;100.00;101506.97;5012738;28;20060;-45
2024/01/23 03:27:06;;;;;;;5.00;0.95;;;;;;;17.25;100.00;101511.34;5005948;28;20136;-45
2024/01/23 03:29:42;;;;;;;3.35;0.88;;;;;;;17.24;100.00;101512.56;5007259;28;20050;-45
2024/01/23 03:32:10;;;;;;;3.13;1.00;;;;;;;17.24;100.00;101515.38;5005312;28;20135;-46
2024/01/23 03:34:38;;;;;;;1.55;0.82;;;;;;;17.25;100.00;101505.72;5011273;28;20759;-46
2024/01/23 03:37:06;;;;;;;1.88;0.90;;;;;;;17.27;100.00;101522.13;5005525;28;20132;-48
2024/01/23 03:39:32;;;;;;;4.80;1.58;;;;;;;17.24;100.00;101528.63;5009084;28;20509;-46
2024/01/23 03:41:59;;;;;;;5.15;1.02;;;;;;;17.20;100.00;101530.75;5013706;28;20060;-46
2024/01/23 03:44:26;;;;;;;3.85;1.20;;;;;;;17.25;100.00;101535.84;5014457;28;20512;-45
2024/01/23 03:46:53;;;;;;;2.70;0.98;;;;;;;17.22;100.00;101534.69;5013417;28;20459;-46
2024/01/23 03:49:22;;;;;;;3.90;1.13;;;;;;;17.25;100.00;101544.28;5009765;28;20077;-46
2024/01/23 03:51:49;;;;;;;4.28;0.90;;;;;;;17.22;100.00;101547.97;5005329;28;20406;-45
2024/01/23 03:54:16;;;;;;;2.63;1.00;;;;;;;17.21;100.00;101564.03;5006542;28;21362;-48
2024/01/23 03:56:43;;;;;;;3.05;1.00;;;;;;;17.20;100.00;101556.84;5008659;28;20513;-45
2024/01/23 03:59:09;;;;;;;3.08;0.82;;;;;;;17.19;100.00;101569.31;5007758;28;20410;-46
2024/01/23 04:01:36;;;;;;;4.35;1.27;;;;;;;17.20;100.00;101567.28;5012993;28;20050;-46
2024/01/23 04:04:03;;;;;;;3.30;0.95;;;;;;;17.21;100.00;101566.84;5011421;28;20042;-45
2024/01/23 04:06:30;;;;;;;3.95;1.15;;;;;;;17.21;100.00;101572.47;5007910;28;20132;-46
2024/01/23 04:08:57;;;;;;;1.67;0.85;;;;;;;17.21;100.00;101577.28;5013720;28;20071;-47
2024/01/23 04:11:24;;;;;;;5.50;1.20;;;;;;;17.19;100.00;101588.22;5006278;28;20046;-48
2024/01/23 04:13:51;;;;;;;5.78;0.80;;;;;;;17.20;100.00;101589.78;5017422;28;20073;-48
2024/01/23 04:16:17;;;;;;;2.42;0.98;;;;;;;17.19;100.00;101596.63;5012843;28;20050;-42
2024/01/23 04:18:44;;;;;;;3.03;1.00;;;;;;;17.19;100.00;101605.84;5007497;28;20052;-47
2024/01/23 04:21:15;;;;;;;1.88;0.82;;;;;;;17.17;100.00;101601.91;5007468;28;20054;-45
2024/01/23 04:23:41;;;;;;;5.45;1.00;;;;;;;17.16;100.00;101609.56;5003126;28;20050;-46
2024/01/23 04:26:08;;;;;;;4.65;1.25;;;;;;;17.14;100.00;101608.41;5011612;28;20124;-44
2024/01/23 04:28:35;;;;;;;5.03;1.50;;;;;;;17.19;100.00;101625.50;5009779;28;20046;-47
2024/01/23 04:31:02;;;;;;;3.10;1.00;;;;;;;17.16;100.00;101628.44;5010506;28;20041;-47
2024/01/23 04:33:29;;;;;;;4.57;1.13;;;;;;;17.16;100.00;101615.19;5007953;28;20539;-45
2024/01/23 04:35:56;;;;;;;3.58;1.00;;;;;;;17.15;100.00;101624.81;5009994;28;20424;-47
2024/01/23 04:38:23;;;;;;;4.15;1.15;;;;;;;17.16;100.00;101626.41;5007242;28;20042;-45
2024/01/23 04:40:49;;;;;;;3.17;1.02;;;;;;;17.16;100.00;101648.91;5005910;28;20059;-44
2024/01/23 04:43:16;;;;;;;4.43;0.88;;;;;;;17.11;100.00;101649.41;5005755;28;20054;-45
2024/01/23 04:45:43;;;;;;;3.33;1.27;;;;;;;17.13;100.00;101646.97;5009847;28;20081;-47
2024/01/23 04:48:10;;;;;;;4.88;1.05;;;;;;;17.12;100.00;101648.16;5009602;28;20116;-48
2024/01/23 04:50:36;;;;;;;3.80;1.00;;;;;;;17.11;100.00;101669.06;5012368;28;20057;-46
2024/01/23 04:53:03;;;;;;;4.80;1.08;;;;;;;17.11;100.00;101660.66;5006919;28;20057;-46
2024/01/23 04:55:29;;;;;;;2.70;0.80;;;;;;;17.11;100.00;101674.69;5011515;28;20061;-50
2024/01/23 04:57:56;;;;;;;5.40;1.10;;;;;;;17.12;100.00;101673.47;5006233;28;20128;-46
2024/01/23 05:00:23;;;;;;;5.10;1.23;;;;;;;17.12;100.00;101678.31;5012051;28;20050;-47
2024/01/23 05:02:49;;;;;;;4.88;1.25;;;;;;;17.12;100.00;101683.94;5012499;28;20100;-46
2024/01/23 05:05:16;;;;;;;2.75;0.88;;;;;;;17.07;100.00;101682.41;5014721;28;21629;-46
2024/01/23 05:07:42;;;;;;;5.63;1.23;;;;;;;17.07;100.00;101676.78;5015346;28;20042;-47
2024/01/23 05:10:09;;;;;;;5.78;1.08;;;;;;;17.08;100.00;101681.16;5015420;28;20111;-48
2024/01/23 05:12:36;;;;;;;5.18;0.98;;;;;;;17.08;100.00;101686.78;5011543;28;20137;-48
2024/01/23 05:15:04;;;;;;;4.78;0.98;;;;;;;17.07;100.00;101693.63;5014134;28;20050;-47
2024/01/23 05:17:33;;;;;;;3.17;1.20;;;;;;;17.06;100.00;101694.88;5008874;28;20049;-46
2024/01/23 05:20:00;;;;;;;3.22;0.95;;;;;;;17.05;100.00;101704.50;5010789;28;20099;-44
2024/01/23 05:22:27;;;;;;;4.97;0.80;;;;;;;17.07;100.00;101709.69;5015507;28;20129;-46
2024/01/23 05:24:53;;;;;;;3.75;1.10;;;;;;;17.05;100.00;101712.16;5018182;28;20483;-44
2024/01/23 05:27:20;;;;;;;3.40;0.95;;;;;;;17.06;100.00;101714.53;5010442;28;20077;-47
2024/01/23 05:29:46;;;;;;;4.57;0.95;;;;;;;17.04;100.00;101717.00;5011127;28;20053;-43
2024/01/23 05:32:13;;;;;;;5.43;1.30;;;;;;;17.04;100.00;101727.44;5010964;28;20061;-45
2024/01/23 05:34:40;;;;;;;3.28;1.00;;;;;;;17.04;100.00;101731.03;5009950;28;20564;-45
2024/01/23 05:37:07;;;;;;;2.75;1.00;;;;;;;17.05;100.00;101743.84;5009586;28;20049;-46
2024/01/23 05:39:37;;;;;;;3.85;0.88;;;;;;;17.03;100.00;101751.13;5010215;28;20069;-46
2024/01/23 05:42:06;;;;;;;3.45;0.90;;;;;;;17.04;100.00;101752.72;5008517;28;20493;-48
2024/01/23 05:44:33;;;;;;;5.13;1.38;;;;;;;17.05;100.00;101762.75;5011010;28;20054;-45
2024/01/23 05:46:59;;;;;;;4.13;0.80;;;;;;;17.03;100.00;101760.38;5019828;28;20052;-49
2024/01/23 05:49:26;;;;;;;3.47;0.90;;;;;;;17.03;100.00;101782.84;5013685;28;20769;-45
2024/01/23 05:51:52;;;;;;;3.22;0.80;;;;;;;17.03;100.00;101780.03;5010483;28;20104;-45
2024/01/23 05:54:19;;;;;;;3.72;1.15;;;;;;;17.03;100.00;101790.47;5009298;28;20137;-45
2024/01/23 05:56:45;;;;;;;4.40;1.20;;;;;;;17.03;100.00;101798.91;5009357;28;20050;-45
2024/01/23 05:59:12;;;;;;;2.20;1.00;;;;;;;17.02;100.00;101808.56;5011621;28;20133;-45
2024/01/23 06:01:38;;;;;;;5.53;0.80;;;;;;;17.02;100.00;101814.19;5011622;28;20045;-45
2024/01/23 06:04:07;;;;;;;5.10;1.00;;;;;;;17.03;100.00;101821.38;5011960;28;20573;-46
2024/01/23 06:06:41;;;;;;;5.40;0.90;;;;;;;17.00;100.00;101813.81;5011959;28;20050;-45
2024/01/23 06:09:10;;;;;;;4.13;1.02;;;;;;;17.01;100.00;101827.44;5005363;28;20085;-47
2024/01/23 06:11:39;;;;;;;5.75;1.08;;;;;;;17.00;100.00;101842.72;5010195;28;20072;-45
2024/01/23 06:14:07;;;;;;;6.53;1.20;;;;;;;17.00;100.00;101837.09;5013994;28;20057;-48
2024/01/23 06:16:34;;;;;;;2.47;1.00;;;;;;;17.01;100.00;101849.09;5015191;28;20045;-45
2024/01/23 06:19:00;;;;;;;4.95;1.40;;;;;;;16.99;100.00;101852.38;5022977;28;20045;-49
2024/01/23 06:21:27;;;;;;;4.45;0.88;;;;;;;17.00;100.00;101847.53;5015850;28;20057;-46
2024/01/23 06:23:54;;;;;;;2.67;0.70;;;;;;;16.99;100.00;101858.00;5024514;28;20053;-45
2024/01/23 06:26:20;;;;;;;3.80;0.90;;;;;;;17.01;100.00;101860.34;5013629;28;20157;-47
2024/01/23 06:28:47;;;;;;;3.00;0.80;;;;;;;16.98;100.00;101856.38;5019151;28;20049;-44
2024/01/23 06:31:14;;;;;;;4.70;0.90;;;;;;;16.99;100.00;101862.81;5010475;28;20081;-43
2024/01/23 06:33:40;;;;;;;4.63;1.02;;;;;;;16.98;100.00;101861.22;5008790;28;20076;-47
2024/01/23 06:36:07;;;;;;;3.75;1.00;;;;;;;16.98;100.00;101869.66;5012367;28;20082;-45
2024/01/23 06:38:34;;;;;;;1.38;0.65;;;;;;;16.97;100.00;101880.09;5009015;28;20137;-44
2024/01/23 06:41:01;;;;;;;2.00;0.85;;;;;;;16.96;100.00;101889.75;5008075;28;20583;-45
2024/01/23 06:43:27;;;;;;;2.08;0.80;;;;;;;16.97;100.00;101904.56;5008988;28;20049;-47
2024/01/23 06:45:55;;;;;;;5.15;1.52;;;;;;;16.96;100.00;101903.00;5010044;28;20092;-44
2024/01/23 06:48:22;;;;;;;3.78;1.17;;;;;;;16.96;100.00;101912.22;5009334;28;20420;-43
2024/01/23 06:50:49;;;;;;;4.45;0.88;;;;;;;16.95;100.00;101913.44;5005130;28;20520;-47
2024/01/23 06:53:15;;;;;;;4.35;0.98;;;;;;;16.97;100.00;101916.63;5007695;28;20133;-44
2024/01/23 06:55:42;;;;;;;2.85;0.80;;;;;;;16.96;100.00;101923.47;5007138;28;20568;-46
2024/01/23 06:58:08;;;;;;;3.63;0.77;;;;;;;16.98;100.00;101932.25;5005313;28;20061;-44
2024/01/23 07:00:35;;;;;;;4.93;0.95;;;;;;;17.02;100.00;101932.94;5009061;28;20061;-44
2024/01/23 07:03:02;;;;;;;4.05;0.85;;;;;;;16.99;100.00;101935.84;5009750;28;20082;-45
2024/01/23 07:05:29;;;;;;;5.05;0.93;;;;;;;17.00;100.00;101943.84;5020238;28;20050;-45
2024/01/23 07:07:55;;;;;;;2.58;0.80;;;;;;;17.00;100.00;101943.03;5006172;28;20064;-44
2024/01/23 07:10:22;;;;;;;6.22;1.40;;;;;;;16.97;100.00;101950.31;5013283;28;20057;-43
2024/01/23 07:12:48;;;;;;;2.63;0.82;;;;;;;16.98;100.00;101956.75;5010441;28;20054;-45
2024/01/23 07:15:15;;;;;;;4.38;1.10;;;;;;;16.99;100.00;101947.91;5012186;28;20056;-45
2024/01/23 07:17:41;;;;;;;3.00;0.80;;;;;;;16.99;100.00;101959.13;5010271;28;20133;-47
2024/01/23 07:20:10;;;;;;;3.97;0.80;;;;;;;16.99;100.00;101952.72;5013027;28;20053;-46
2024/01/23 07:22:37;;;;;;;6.07;1.00;;;;;;;16.98;100.00;101962.38;5008610;28;20053;-45
2024/01/23 07:25:04;;;;;;;4.80;0.80;;;;;;;16.97;100.00;101953.13;5009844;28;20073;-44
2024/01/23 07:27:31;;;;;;;3.38;1.02;;;;;;;16.97;100.00;101961.56;5014938;28;20443;-46
2024/01/23 07:29:58;;;;;;;4.28;1.23;;;;;;;16.98;100.00;101974.38;5010171;28;20068;-47
2024/01/23 07:32:25;;;;;;;3.95;1.08;;;;;;;17.00;100.00;101971.13;5013050;28;20124;-45
2024/01/23 07:34:51;;;;;;;3.83;0.90;;;;;;;16.98;100.00;101980.00;5009143;28;20046;-45
2024/01/23 07:37:18;;;;;;;2.83;0.88;;;;;;;17.00;100.00;101990.81;5007736;28;20083;-46
2024/01/23 07:39:45;;;;;;;8.93;1.05;;;;;;;16.98;100.00;101991.22;5008266;28;20119;-45
2024/01/23 07:42:11;;;;;;;4.93;0.95;;;;;;;16.99;100.00;101987.22;5008018;28;20145;-44
2024/01/23 07:44:39;;;;;;;7.00;1.27;;;;;;;16.98;100.00;101985.63;5009167;28;20081;-47
2024/01/23 07:47:05;;;;;;;6.80;0.90;;;;;;;16.96;100.00;102012.56;5009540;28;20045;-49
2024/01/23 07:49:32;;;;;;;1.50;0.80;;;;;;;16.96;100.00;102013.38;5009154;28;20062;-48
2024/01/23 07:51:59;;;;;;;4.72;0.88;;;;;;;16.97;100.00;102019.75;5008617;28;20096;-48
2024/01/23 07:54:25;;;;;;;3.05;0.90;;;;;;;16.96;100.00;102019.00;5007653;28;20160;-46
2024/01/23 07:56:52;;;;;;;3.75;1.05;;;;;;;16.95;100.00;102025.81;5006798;28;20042;-46
2024/01/23 07:59:19;;;;;;;1.77;0.70;;;;;;;16.96;100.00;102033.03;5007269;28;20054;-47
2024/01/23 08:01:45;;;;;;;2.38;0.65;;;;;;;16.96;100.00;102044.28;5006114;28;20056;-46
2024/01/23 08:04:12;;;;;;;2.88;0.90;;;;;;;16.92;100.00;102049.13;5009728;28;20054;-43
2024/01/23 08:06:38;;;;;;;1.30;0.73;;;;;;;16.95;100.00;102055.94;5008672;28;20056;-44
2024/01/23 08:09:05;;;;;;;6.18;0.93;;;;;;;16.96;100.00;102061.13;5005738;28;20046;-45
2024/01/23 08:11:32;;;;;;;2.28;1.02;;;;;;;16.96;100.00;102077.97;5002411;28;20082;-45
2024/01/23 08:13:58;;;;;;;4.72;0.90;;;;;;;16.86;100.00;102064.91;5008095;28;20046;-46
2024/01/23 08:16:25;;;;;;;4.35;0.93;;;;;;;16.88;100.00;102078.53;4995139;28;20054;-46
2024/01/23 08:18:52;;;;;;;13.45;2.03;;;;;;;16.80;100.00;102075.06;5002313;28;20049;-45
2024/01/23 08:21:18;;;;;;;8.90;1.95;;;;;;;16.76;100.00;102087.56;5010083;28;20121;-45
2024/01/23 08:23:45;;;;;;;11.00;2.53;;;;;;;16.66;100.00;102097.78;5003386;28;20053;-46
2024/01/23 08:26:12;;;;;;;22.17;4.25;;;;;;;16.39;100.00;102097.00;5003874;28;20137;-44
2024/01/23 08:28:50;;;;;;;16.33;4.15;;;;;;;16.34;100.00;102089.03;5002737;28;20125;-44
2024/01/23 08:31:17;;;;;;;14.63;4.22;;;;;;;16.51;100.00;102092.81;5005638;28;20046;-45
2024/01/23 08:33:44;;;;;;;14.05;3.45;;;;;;;16.59;100.00;102080.22;5001832;28;20073;-45
2024/01/23 08:36:12;;;;;;;13.63;3.78;;;;;;;16.62;100.00;102085.00;5013230;28;20049;-47
2024/01/23 08:38:38;;;;;;;16.45;3.58;;;;;;;16.66;100.00;102086.53;5011414;28;20398;-46
2024/01/23 08:41:09;;;;;;;18.83;3.53;;;;;;;16.69;100.00;102096.91;5016576;28;20049;-47
2024/01/23 08:43:36;;;;;;;11.95;2.67;;;;;;;16.71;100.00;102083.22;5011579;28;20532;-45
2024/01/23 08:46:03;;;;;;;9.60;2.90;;;;;;;16.75;100.00;102094.41;5014278;28;20100;-44
2024/01/23 08:48:30;;;;;;;16.05;2.85;;;;;;;16.76;100.00;102101.59;5007264;28;20527;-45
2024/01/23 08:50:57;;;;;;;10.05;2.75;;;;;;;16.74;100.00;102087.19;5006718;28;20136;-45
2024/01/23 08:53:23;;;;;;;13.90;3.67;;;;;;;16.75;100.00;102094.41;5010810;28;20057;-44
2024/01/23 08:55:50;;;;;;;15.70;3.83;;;;;;;16.75;100.00;102086.75;5010678;28;20054;-44
2024/01/23 08:58:18;;;;;;;18.00;3.03;;;;;;;16.76;100.00;102091.19;5007777;28;20478;-45
2024/01/23 09:00:45;;;;;;;12.07;2.80;;;;;;;16.76;100.00;102102.41;5010336;28;20069;-44
2024/01/23 09:03:12;;;;;;;10.02;2.42;;;;;;;16.76;100.00;102096.78;5010925;28;20054;-44
2024/01/23 09:05:39;;;;;;;14.90;3.10;;;;;;;16.77;100.00;102095.56;5015616;28;20049;-44
2024/01/23 09:08:11;;;;;;;15.13;4.28;;;;;;;16.77;100.00;102100.38;5009929;28;20050;-45
2024/01/23 09:10:38;;;;;;;11.57;2.53;;;;;;;16.77;100.00;102103.19;5010825;28;20069;-47
2024/01/23 09:13:04;;;;;;;15.63;3.45;;;;;;;16.77;100.00;102100.38;5004062;28;20054;-45
2024/01/23 09:15:31;;;;;;;12.27;2.45;;;;;;;16.79;100.00;102103.56;5002445;28;20060;-46
2024/01/23 09:17:59;;;;;;;12.93;2.50;;;;;;;16.80;100.00;102105.16;5012334;28;20056;-46
2024/01/23 09:20:26;;;;;;;14.60;3.10;;;;;;;16.79;100.00;102106.38;5015122;28;20049;-47
2024/01/23 09:22:53;;;;;;;10.88;2.15;;;;;;;16.77;100.00;102106.78;5025991;28;20496;-44
2024/01/23 09:25:20;;;;;;;6.82;2.05;;;;;;;16.78;100.00;102114.00;5023382;28;20054;-47
2024/01/23 09:27:48;;;;;;;13.65;3.25;;;;;;;16.77;100.00;102120.84;5021278;28;20049;-45
2024/01/23 09:30:19;;;;;;;10.35;2.20;;;;;;;16.75;100.00;102123.28;5013684;28;20050;-45
2024/01/23 09:32:52;;;;;;;11.00;2.92;;;;;;;16.76;100.00;102116.47;5011984;28;20048;-47
2024/01/23 09:35:19;;;;;;;10.75;2.38;;;;;;;16.75;100.00;102116.88;5005117;28;20085;-46
2024/01/23 09:37:45;;;;;;;9.70;2.25;;;;;;;16.73;100.00;102122.91;5010938;28;20045;-44
2024/01/23 09:40:13;;;;;;;10.18;2.28;;;;;;;16.74;100.00;102130.13;5007735;28;20141;-45
2024/01/23 09:42:40;;;;;;;13.95;2.42;;;;;;;16.73;100.00;102145.38;5010966;28;20077;-45
2024/01/23 09:45:15;;;;;;;12.05;2.50;;;;;;;16.73;100.00;102134.16;5011251;28;20061;-45
2024/01/23 09:47:43;;;;;;;11.27;2.70;;;;;;;16.69;100.00;102133.44;5009900;28;20515;-46
2024/01/23 09:50:13;;;;;;;10.77;2.10;;;;;;;16.74;100.00;102146.97;5011254;28;20054;-45
2024/01/23 09:52:43;;;;;;;14.73;3.10;;;;;;;16.71;100.00;102156.25;5016091;28;20141;-44
2024/01/23 09:55:10;;;;;;;17.17;4.18;;;;;;;16.65;100.00;102151.53;5009662;28;20057;-45
2024/01/23 09:57:42;;;;;;;16.25;3.03;;;;;;;16.67;100.00;102154.69;5002552;28;20057;-45
2024/01/23 10:00:13;;;;;;;12.75;2.92;;;;;;;16.71;100.00;102166.69;5012295;28;20057;-46
2024/01/23 10:02:41;;;;;;;14.38;3.28;;;;;;;16.75;100.00;102167.44;5010689;28;20049;-46
2024/01/23 10:05:09;;;;;;;12.05;2.65;;;;;;;16.77;100.00;102159.34;5011084;28;20140;-45
2024/01/23 10:07:37;;;;;;;10.85;2.30;;;;;;;16.72;100.00;102162.66;5016218;28;21891;-45
2024/01/23 10:10:13;;;;;;;11.82;2.72;;;;;;;16.73;100.00;102159.44;5009948;28;20042;-47
2024/01/23 10:12:58;;;;;;;10.32;2.55;;;;;;;16.75;100.00;102170.25;5009180;28;20081;-45
2024/01/23 10:15:25;;;;;;;13.85;2.70;;;;;;;16.76;100.00;102177.44;5009832;28;20123;-44
2024/01/23 10:17:53;;;;;;;11.52;2.30;;;;;;;16.77;100.00;102179.03;5010438;28;20500;-46
2024/01/23 10:20:20;;;;;;;9.18;2.38;;;;;;;16.77;100.00;102185.44;5012584;28;20056;-46
2024/01/23 10:22:48;;;;;;;13.02;2.22;;;;;;;16.77;100.00;102177.00;5010134;28;20054;-47
2024/01/23 10:25:19;;;;;;;12.43;2.40;;;;;;;16.79;100.00;102182.22;5010159;28;20054;-45
2024/01/23 10:27:52;;;;;;;11.95;2.72;;;;;;;16.80;100.00;102176.16;5009593;28;20459;-47
2024/01/23 10:30:19;;;;;;;10.90;2.60;;;;;;;16.80;100.00;102164.13;5013546;28;20050;-45
2024/01/23 10:32:46;;;;;;;12.32;2.42;;;;;;;16.83;100.00;102183.75;5009282;28;20045;-44
2024/01/23 10:35:14;;;;;;;9.68;2.55;;;;;;;16.79;100.00;102168.97;5013333;28;20137;-53
2024/01/23 10:37:44;;;;;;;10.80;2.58;;;;;;;16.78;100.00;102167.38;5008568;28;20053;-46
2024/01/23 10:40:13;;;;;;;10.00;2.40;;;;;;;16.82;100.00;102162.50;5005834;28;20042;-46
2024/01/23 10:42:40;;;;;;;10.23;2.33;;;;;;;16.84;100.00;102167.66;5007664;28;20488;-45
2024/01/23 10:45:16;;;;;;;7.75;2.05;;;;;;;16.85;100.00;102166.47;5007549;28;20061;-46
2024/01/23 10:47:45;;;;;;;10.18;2.40;;;;;;;16.85;100.00;102172.84;5010009;28;20100;-45
2024/01/23 10:50:12;;;;;;;9.75;2.08;;;;;;;16.86;100.00;102163.25;5010888;28;20069;-46
2024/01/23 10:52:39;;;;;;;11.82;2.50;;;;;;;16.83;100.00;102158.47;5012947;28;20143;-47
2024/01/23 10:55:07;;;;;;;8.40;1.88;;;;;;;16.86;100.00;102146.38;5016265;28;20133;-45
2024/01/23 10:57:37;;;;;;;7.50;2.53;;;;;;;16.87;100.00;102147.97;5008778;28;20058;-45
2024/01/23 11:00:05;;;;;;;8.50;2.20;;;;;;;16.88;100.00;102146.72;5010099;28;20041;-47
2024/01/23 11:02:40;;;;;;;10.95;2.65;;;;;;;16.88;100.00;102143.91;5016601;28;20269;-45
2024/01/23 11:05:07;;;;;;;9.88;2.40;;;;;;;16.89;100.00;102134.28;5011080;28;20084;-47
2024/01/23 11:07:57;;;;;;;8.15;2.13;;;;;;;16.88;100.00;102124.25;5021480;28;20527;-47
2024/01/23 11:10:36;;;;;;;7.47;1.90;;;;;;;16.90;100.00;102129.44;5020441;28;20574;-46
2024/01/23 11:13:11;;;;;;;12.43;2.70;;;;;;;16.90;100.00;102130.25;5006174;28;20437;-46
2024/01/23 11:15:38;;;;;;;7.25;2.22;;;;;;;16.90;100.00;102135.88;5003527;28;20129;-46